createdAt,value
2023-01-05T00:01:43.010Z,98751.28
2023-01-05T00:03:44.564Z,98765.00
2023-01-05T00:05:46.136Z,98767.72
2023-01-05T00:07:48.922Z,98762.25
2023-01-05T00:09:50.569Z,98756.47
2023-01-05T00:12:13.572Z,98780.06
2023-01-05T00:14:56.923Z,98766.63
2023-01-05T00:17:17.579Z,98756.75
2023-01-05T00:19:37.991Z,98763.88
2023-01-05T00:22:11.725Z,98773.22
2023-01-05T00:24:13.338Z,98769.63
2023-01-05T00:26:15.043Z,98760.34
2023-01-05T00:28:24.335Z,98757.31
2023-01-05T00:30:32.944Z,98742.78
2023-01-05T00:32:35.737Z,98749.38
2023-01-05T00:34:37.318Z,98737.31
2023-01-05T00:36:42.773Z,98739.78
2023-01-05T00:38:44.390Z,98740.59
2023-01-05T00:40:46.219Z,98739.50
2023-01-05T00:42:48.347Z,98733.47
2023-01-05T00:44:50.107Z,98731.56
2023-01-05T00:46:51.841Z,98730.72
2023-01-05T00:48:56.510Z,98736.22
2023-01-05T00:50:58.204Z,98745.28
2023-01-05T00:52:59.743Z,98749.91
2023-01-05T00:55:01.473Z,98739.78
2023-01-05T00:57:03.738Z,98743.34
2023-01-05T00:59:05.687Z,98717.03
2023-01-05T01:01:11.805Z,98723.34
2023-01-05T01:03:16.801Z,98717.88
2023-01-05T01:05:19.155Z,98715.91
2023-01-05T01:07:20.849Z,98719.50
2023-01-05T01:09:22.592Z,98714.28
2023-01-05T01:11:26.621Z,98710.44
2023-01-05T01:13:28.350Z,98709.34
2023-01-05T01:15:31.523Z,98701.97
2023-01-05T01:17:33.679Z,98690.16
2023-01-05T01:19:35.310Z,98692.91
2023-01-05T01:21:43.049Z,98673.72
2023-01-05T01:23:44.752Z,98673.44
2023-01-05T01:25:46.885Z,98681.66
2023-01-05T01:27:51.062Z,98675.09
2023-01-05T01:29:52.605Z,98669.63
2023-01-05T01:32:03.459Z,98667.72
2023-01-05T01:34:05.628Z,98674.00
2023-01-05T01:36:08.582Z,98664.97
2023-01-05T01:38:13.494Z,98674.28
2023-01-05T01:40:15.294Z,98675.09
2023-01-05T01:42:17.625Z,98667.72
2023-01-05T01:44:51.717Z,98681.66
2023-01-05T01:46:56.063Z,98677.56
2023-01-05T01:49:09.937Z,98669.34
2023-01-05T01:51:18.459Z,98670.16
2023-01-05T01:53:26.522Z,98666.34
2023-01-05T01:55:29.344Z,98649.59
2023-01-05T01:57:32.723Z,98644.13
2023-01-05T01:59:40.211Z,98648.53
2023-01-05T02:01:42.977Z,98658.38
2023-01-05T02:03:45.373Z,98653.72
2023-01-05T02:05:46.939Z,98657.00
2023-01-05T02:07:51.706Z,98660.31
2023-01-05T02:09:53.321Z,98663.06
2023-01-05T02:12:16.144Z,98675.41
2023-01-05T02:14:39.132Z,98666.91
2023-01-05T02:16:53.059Z,98677.88
2023-01-05T02:19:31.881Z,98666.91
2023-01-05T02:21:59.020Z,98666.06
2023-01-05T02:24:17.069Z,98676.50
2023-01-05T02:26:40.886Z,98675.41
2023-01-05T02:29:04.011Z,98667.19
2023-01-05T02:31:15.355Z,98662.25
2023-01-05T02:33:41.810Z,98654.84
2023-01-05T02:36:14.491Z,98648.53
2023-01-05T02:38:26.302Z,98643.06
2023-01-05T02:40:40.154Z,98629.91
2023-01-05T02:42:43.329Z,98632.63
2023-01-05T02:44:51.243Z,98627.72
2023-01-05T02:47:15.612Z,98631.81
2023-01-05T02:49:17.899Z,98632.63
2023-01-05T02:51:25.117Z,98638.13
2023-01-05T02:53:33.781Z,98634.34
2023-01-05T02:55:44.891Z,98632.13
2023-01-05T02:57:58.205Z,98633.22
2023-01-05T03:00:04.679Z,98642.00
2023-01-05T03:02:19.139Z,98636.53
2023-01-05T03:04:47.986Z,98645.00
2023-01-05T03:06:59.807Z,98645.56
2023-01-05T03:09:06.340Z,98651.31
2023-01-05T03:11:29.066Z,98648.31
2023-01-05T03:13:42.735Z,98641.72
2023-01-05T03:15:58.833Z,98637.63
2023-01-05T03:18:26.876Z,98639.00
2023-01-05T03:20:32.467Z,98632.66
2023-01-05T03:22:58.233Z,98634.34
2023-01-05T03:25:19.562Z,98631.59
2023-01-05T03:27:41.302Z,98627.19
2023-01-05T03:30:02.348Z,98625.81
2023-01-05T03:32:35.725Z,98628.84
2023-01-05T03:35:10.432Z,98625.00
2023-01-05T03:37:26.801Z,98624.19
2023-01-05T03:39:30.590Z,98625.00
2023-01-05T03:41:39.558Z,98625.00
2023-01-05T03:43:46.539Z,98623.91
2023-01-05T03:45:56.258Z,98619.50
2023-01-05T03:48:00.986Z,98618.41
2023-01-05T03:50:04.047Z,98614.59
2023-01-05T03:52:06.668Z,98612.41
2023-01-05T03:54:08.433Z,98617.06
2023-01-05T03:56:11.307Z,98619.78
2023-01-05T03:58:13.108Z,98624.19
2023-01-05T04:00:19.181Z,98626.09
2023-01-05T04:02:21.164Z,98629.94
2023-01-05T04:04:23.111Z,98635.41
2023-01-05T04:06:24.863Z,98637.31
2023-01-05T04:08:27.107Z,98643.09
2023-01-05T04:10:29.081Z,98635.41
2023-01-05T04:12:32.120Z,98631.84
2023-01-05T04:14:33.995Z,98648.03
2023-01-05T04:16:36.726Z,98643.41
2023-01-05T04:18:50.832Z,98643.09
2023-01-05T04:20:54.700Z,98640.06
2023-01-05T04:22:57.714Z,98657.34
2023-01-05T04:25:00.478Z,98643.66
2023-01-05T04:27:04.184Z,98649.13
2023-01-05T04:29:06.196Z,98648.31
2023-01-05T04:31:09.911Z,98651.88
2023-01-05T04:33:12.716Z,98658.19
2023-01-05T04:35:14.686Z,98654.63
2023-01-05T04:37:19.640Z,98655.72
2023-01-05T04:39:21.831Z,98655.72
2023-01-05T04:41:24.476Z,98650.25
2023-01-05T04:43:29.422Z,98657.34
2023-01-05T04:45:34.795Z,98642.81
2023-01-05T04:47:36.996Z,98652.16
2023-01-05T04:49:41.263Z,98654.06
2023-01-05T04:51:44.525Z,98650.50
2023-01-05T04:53:48.211Z,98670.53
2023-01-05T04:55:52.879Z,98663.38
2023-01-05T04:58:08.326Z,98665.03
2023-01-05T05:00:14.860Z,98671.59
2023-01-05T05:02:17.707Z,98660.94
2023-01-05T05:04:19.912Z,98660.09
2023-01-05T05:06:24.336Z,98666.13
2023-01-05T05:08:30.652Z,98680.13
2023-01-05T05:10:34.785Z,98671.91
2023-01-05T05:12:36.866Z,98683.69
2023-01-05T05:14:39.875Z,98678.47
2023-01-05T05:16:47.901Z,98683.94
2023-01-05T05:18:49.562Z,98686.69
2023-01-05T05:20:56.351Z,98696.88
2023-01-05T05:23:03.190Z,98713.28
2023-01-05T05:25:08.411Z,98714.34
2023-01-05T05:27:24.338Z,98717.94
2023-01-05T05:29:26.352Z,98704.22
2023-01-05T05:31:28.066Z,98724.50
2023-01-05T05:33:32.339Z,98718.47
2023-01-05T05:35:33.926Z,98722.56
2023-01-05T05:37:36.883Z,98722.84
2023-01-05T05:39:41.429Z,98735.44
2023-01-05T05:41:42.925Z,98749.97
2023-01-05T05:43:44.533Z,98734.59
2023-01-05T05:45:50.257Z,98743.41
2023-01-05T05:47:52.603Z,98742.00
2023-01-05T05:49:54.579Z,98744.19
2023-01-05T05:52:03.628Z,98741.19
2023-01-05T05:54:05.252Z,98746.09
2023-01-05T05:56:07.202Z,98746.69
2023-01-05T05:58:09.121Z,98744.47
2023-01-05T06:00:13.779Z,98755.44
2023-01-05T06:02:16.711Z,98763.66
2023-01-05T06:04:18.569Z,98760.38
2023-01-05T06:06:20.107Z,98765.28
2023-01-05T06:08:31.095Z,98766.94
2023-01-05T06:10:35.711Z,98767.22
2023-01-05T06:12:37.392Z,98765.28
2023-01-05T06:14:39.344Z,98780.09
2023-01-05T06:16:40.889Z,98779.53
2023-01-05T06:18:45.408Z,98786.66
2023-01-05T06:20:47.180Z,98777.06
2023-01-05T06:22:48.812Z,98775.97
2023-01-05T06:24:58.008Z,98779.78
2023-01-05T06:26:59.572Z,98777.59
2023-01-05T06:29:08.734Z,98785.00
2023-01-05T06:31:10.368Z,98786.09
2023-01-05T06:33:13.983Z,98795.38
2023-01-05T06:35:18.695Z,98795.66
2023-01-05T06:37:29.305Z,98795.34
2023-01-05T06:39:30.959Z,98807.16
2023-01-05T06:41:32.464Z,98799.47
2023-01-05T06:43:34.010Z,98806.88
2023-01-05T06:45:36.004Z,98806.06
2023-01-05T06:47:37.624Z,98804.66
2023-01-05T06:49:39.285Z,98817.53
2023-01-05T06:51:40.979Z,98804.13
2023-01-05T06:53:43.865Z,98819.72
2023-01-05T06:55:51.556Z,98812.31
2023-01-05T06:57:58.705Z,98824.06
2023-01-05T07:00:13.912Z,98824.06
2023-01-05T07:02:22.372Z,98828.75
2023-01-05T07:04:24.214Z,98834.22
2023-01-05T07:06:31.097Z,98838.31
2023-01-05T07:08:35.764Z,98833.09
2023-01-05T07:10:37.406Z,98832.25
2023-01-05T07:12:39.132Z,98844.06
2023-01-05T07:14:40.724Z,98843.50
2023-01-05T07:16:45.097Z,98840.19
2023-01-05T07:41:41.154Z,98889.03
2023-01-05T07:43:42.790Z,98882.75
2023-01-05T07:45:44.607Z,98883.34
2023-01-05T07:47:46.590Z,98893.19
2023-01-05T07:49:48.449Z,98900.31
2023-01-05T07:51:50.166Z,98905.25
2023-01-05T07:53:51.807Z,98908.78
2023-01-05T07:56:00.944Z,98916.19
2023-01-05T07:58:03.046Z,98917.81
2023-01-05T08:00:07.908Z,98911.53
2023-01-05T08:02:15.432Z,98922.47
2023-01-05T08:04:17.329Z,98926.03
2023-01-05T08:06:22.319Z,98923.31
2023-01-05T08:08:24.751Z,98923.31
2023-01-05T08:10:33.059Z,98933.19
2023-01-05T08:12:54.605Z,98935.94
2023-01-05T08:14:56.436Z,98945.50
2023-01-05T08:17:00.535Z,98943.59
2023-01-05T08:19:07.787Z,98947.41
2023-01-05T08:21:12.893Z,98942.75
2023-01-05T08:23:25.953Z,98949.84
2023-01-05T08:25:28.317Z,98949.06
2023-01-05T08:27:31.967Z,98958.34
2023-01-05T08:29:35.945Z,98950.97
2023-01-05T08:31:39.596Z,98960.81
2023-01-05T08:33:41.458Z,98971.78
2023-01-05T08:35:47.901Z,98963.31
2023-01-05T08:37:49.579Z,98962.22
2023-01-05T08:39:51.189Z,98978.41
2023-01-05T08:41:57.432Z,98966.63
2023-01-05T08:44:05.718Z,98963.88
2023-01-05T08:46:07.498Z,98971.25
2023-01-05T08:48:10.403Z,98972.66
2023-01-05T08:50:12.480Z,98969.91
2023-01-05T08:52:15.287Z,98967.72
2023-01-05T08:54:19.162Z,98969.41
2023-01-05T08:56:21.836Z,98963.91
2023-01-05T08:58:26.509Z,98960.66
2023-01-05T09:00:28.261Z,98966.16
2023-01-05T09:02:32.987Z,98969.72
2023-01-05T09:04:34.872Z,98979.31
2023-01-05T09:06:36.463Z,98980.97
2023-01-05T09:08:39.095Z,98986.44
2023-01-05T09:10:40.827Z,98980.44
2023-01-05T09:12:42.636Z,98976.63
2023-01-05T09:14:44.527Z,98991.72
2023-01-05T09:19:09.268Z,98989.25
2023-01-05T09:21:11.889Z,98984.94
2023-01-05T09:23:13.585Z,98991.81
2023-01-05T09:25:16.511Z,98992.94
2023-01-05T09:27:21.132Z,99004.72
2023-01-05T09:29:22.791Z,98995.38
2023-01-05T09:31:24.921Z,98990.22
2023-01-05T09:33:26.754Z,99003.41
2023-01-05T09:35:28.692Z,99002.06
2023-01-05T09:37:30.426Z,99002.63
2023-01-05T09:39:32.032Z,99012.78
2023-01-05T09:41:48.240Z,99016.09
2023-01-05T09:43:58.806Z,99011.19
2023-01-05T09:46:01.737Z,99018.31
2023-01-05T09:48:04.170Z,99028.47
2023-01-05T09:50:21.408Z,99016.44
2023-01-05T09:52:23.059Z,99020.56
2023-01-05T09:54:28.653Z,99013.50
2023-01-05T09:59:04.896Z,99019.56
2023-01-05T10:01:16.050Z,99022.63
2023-01-05T10:03:53.395Z,99013.88
2023-01-05T10:05:45.273Z,99022.41
2023-01-05T10:07:49.891Z,99016.09
2023-01-05T10:09:54.890Z,99022.13
2023-01-05T10:12:29.302Z,99014.75
2023-01-05T10:14:39.128Z,99011.16
2023-01-05T10:16:45.247Z,99028.19
2023-01-05T10:18:47.481Z,99010.63
2023-01-05T10:20:58.095Z,99004.06
2023-01-05T10:23:15.158Z,99007.63
2023-01-05T10:25:28.843Z,99001.06
2023-01-05T10:27:45.566Z,99011.75
2023-01-05T10:29:49.582Z,99008.47
2023-01-05T10:32:20.651Z,99016.72
2023-01-05T10:34:33.565Z,99017.03
2023-01-05T10:37:08.023Z,99019.50
2023-01-05T10:39:29.099Z,99008.53
2023-01-05T10:41:38.143Z,99015.16
2023-01-05T10:43:54.216Z,99016.56
2023-01-05T10:46:29.878Z,99000.66
2023-01-05T10:48:35.929Z,99003.09
2023-01-05T10:50:38.984Z,98993.50
2023-01-05T10:52:40.700Z,98990.25
2023-01-05T10:55:02.594Z,98999.56
2023-01-05T10:57:33.998Z,98994.91
2023-01-05T10:59:55.661Z,99007.53
2023-01-05T11:01:57.631Z,99019.06
2023-01-05T11:06:31.920Z,99022.13
2023-01-05T11:08:33.491Z,99021.56
2023-01-05T11:10:50.091Z,99027.34
2023-01-05T11:12:55.766Z,99022.97
2023-01-05T11:14:59.009Z,99022.44
2023-01-05T11:17:07.203Z,99013.13
2023-01-05T11:19:15.933Z,99016.13
2023-01-05T11:21:28.341Z,99021.63
2023-01-05T11:23:42.781Z,99029.09
2023-01-05T11:25:44.597Z,99034.59
2023-01-05T11:28:05.467Z,99022.50
2023-01-05T11:30:19.275Z,99019.75
2023-01-05T11:32:21.119Z,99026.91
2023-01-05T11:34:25.664Z,99028.81
2023-01-05T11:36:29.733Z,99026.38
2023-01-05T11:38:35.060Z,99038.47
2023-01-05T11:40:37.099Z,99042.06
2023-01-05T11:42:43.392Z,99033.81
2023-01-05T11:44:54.264Z,99036.84
2023-01-05T11:46:56.002Z,99037.97
2023-01-05T11:48:57.992Z,99031.94
2023-01-05T11:51:00.232Z,99045.09
2023-01-05T11:53:03.032Z,99044.31
2023-01-05T11:55:19.614Z,99045.75
2023-01-05T11:57:27.018Z,99041.34
2023-01-05T11:59:32.497Z,99046.84
2023-01-05T12:01:56.067Z,99045.75
2023-01-05T12:04:06.401Z,99037.78
2023-01-05T12:06:31.470Z,99039.75
2023-01-05T12:08:47.129Z,99033.41
2023-01-05T12:10:59.614Z,99027.38
2023-01-05T12:13:23.526Z,99033.97
2023-01-05T12:15:49.902Z,99034.53
2023-01-05T12:17:56.685Z,99035.06
2023-01-05T12:20:10.639Z,99035.91
2023-01-05T12:22:49.026Z,99034.28
2023-01-05T12:25:13.860Z,99032.91
2023-01-05T12:27:32.839Z,99035.38
2023-01-05T12:35:13.043Z,99041.16
2023-01-05T12:37:33.695Z,99042.53
2023-01-05T12:39:45.667Z,99041.97
2023-01-05T12:42:24.956Z,99041.41
2023-01-05T12:44:39.690Z,99039.22
2023-01-05T12:47:08.894Z,99038.13
2023-01-05T12:49:59.156Z,99038.41
2023-01-05T12:52:10.968Z,99041.72
2023-01-05T12:54:31.453Z,99052.41
2023-01-05T12:56:44.436Z,99054.91
2023-01-05T12:59:17.408Z,99064.53
2023-01-05T13:01:27.759Z,99063.97
2023-01-05T13:03:45.602Z,99065.63
2023-01-05T13:06:08.219Z,99058.22
2023-01-05T13:08:22.041Z,99054.91
2023-01-05T13:10:38.365Z,99060.66
2023-01-05T13:12:42.910Z,99071.41
2023-01-05T13:15:16.233Z,99081.03
2023-01-05T13:17:29.763Z,99077.72
2023-01-05T13:19:35.047Z,99070.31
2023-01-05T13:21:40.316Z,99057.38
2023-01-05T13:23:50.152Z,99057.66
2023-01-05T13:25:55.789Z,99048.03
2023-01-05T13:27:57.516Z,99050.22
2023-01-05T13:30:02.483Z,99048.03
2023-01-05T13:32:32.907Z,99047.75
2023-01-05T13:34:38.029Z,99050.22
2023-01-05T13:36:45.453Z,99050.78
2023-01-05T13:38:55.627Z,99057.06
2023-01-05T13:41:27.798Z,99059.00
2023-01-05T13:44:00.514Z,99064.50
2023-01-05T13:46:17.740Z,99065.03
2023-01-05T13:48:45.175Z,99062.00
2023-01-05T13:51:35.661Z,99060.06
2023-01-05T13:53:41.402Z,99065.28
2023-01-05T13:56:06.406Z,99065.56
2023-01-05T14:00:43.692Z,99063.66
2023-01-05T14:02:54.372Z,99067.25
2023-01-05T14:04:57.123Z,99062.53
2023-01-05T14:07:06.269Z,99062.28
2023-01-05T14:09:15.433Z,99068.63
2023-01-05T14:11:21.762Z,99071.91
2023-01-05T14:13:55.982Z,99072.16
2023-01-05T14:16:00.223Z,99085.66
2023-01-05T14:18:07.371Z,99080.16
2023-01-05T14:20:30.472Z,99089.50
2023-01-05T14:22:38.253Z,99091.97
2023-01-05T14:24:47.824Z,99091.97
2023-01-05T14:27:02.589Z,99089.25
2023-01-05T14:29:04.387Z,99083.75
2023-01-05T14:31:13.702Z,99094.72
2023-01-05T14:33:18.090Z,99089.25
2023-01-05T14:35:24.802Z,99100.47
2023-01-05T14:37:43.878Z,99102.69
2023-01-05T14:39:45.860Z,99110.09
2023-01-05T14:42:12.341Z,99113.13
2023-01-05T14:44:30.046Z,99117.25
2023-01-05T14:46:47.159Z,99125.50
2023-01-05T14:49:06.678Z,99125.19
2023-01-05T14:51:08.341Z,99137.00
2023-01-05T14:53:09.994Z,99134.81
2023-01-05T14:55:38.409Z,99131.50
2023-01-05T14:57:57.140Z,99134.22
2023-01-05T15:00:37.167Z,99137.25
2023-01-05T15:03:11.415Z,99128.72
2023-01-05T15:05:17.383Z,99140.53
2023-01-05T15:07:56.590Z,99137.47
2023-01-05T15:10:21.264Z,99135.53
2023-01-05T15:12:46.118Z,99130.84
2023-01-05T15:15:06.657Z,99130.56
2023-01-05T15:17:33.212Z,99130.84
2023-01-05T15:19:58.102Z,99131.38
2023-01-05T15:22:39.152Z,99134.34
2023-01-05T15:25:04.862Z,99136.00
2023-01-05T15:27:27.002Z,99133.78
2023-01-05T15:29:46.643Z,99142.31
2023-01-05T15:31:58.662Z,99144.50
2023-01-05T15:34:22.075Z,99154.91
2023-01-05T15:36:27.452Z,99154.34
2023-01-05T15:38:30.678Z,99165.84
2023-01-05T15:40:32.588Z,99173.28
2023-01-05T15:42:44.605Z,99173.53
2023-01-05T15:44:49.306Z,99182.28
2023-01-05T15:46:51.964Z,99174.59
2023-01-05T15:48:54.501Z,99172.94
2023-01-05T15:50:58.652Z,99179.50
2023-01-05T15:53:01.633Z,99180.88
2023-01-05T15:55:16.761Z,99184.72
2023-01-05T15:57:20.948Z,99188.84
2023-01-05T15:59:36.014Z,99188.28
2023-01-05T16:01:38.255Z,99186.88
2023-01-05T16:03:42.455Z,99186.28
2023-01-05T16:05:47.043Z,99194.53
2023-01-05T16:07:54.609Z,99181.34
2023-01-05T16:09:57.025Z,99195.31
2023-01-05T16:12:48.939Z,99190.34
2023-01-05T16:14:57.754Z,99192.81
2023-01-05T16:17:14.821Z,99199.66
2023-01-05T16:19:28.799Z,99195.25
2023-01-05T16:21:41.825Z,99201.25
2023-01-05T16:23:54.115Z,99193.56
2023-01-05T16:25:58.334Z,99190.81
2023-01-05T16:28:04.621Z,99198.47
2023-01-05T16:30:38.843Z,99200.09
2023-01-05T16:32:42.447Z,99195.69
2023-01-05T16:34:44.177Z,99205.25
2023-01-05T16:37:15.370Z,99206.63
2023-01-05T16:39:24.768Z,99203.31
2023-01-05T16:41:27.507Z,99208.78
2023-01-05T16:43:52.850Z,99212.66
2023-01-05T16:45:58.334Z,99209.59
2023-01-05T16:48:00.355Z,99212.31
2023-01-05T16:50:31.264Z,99207.34
2023-01-05T16:52:45.856Z,99215.84
2023-01-05T16:54:48.488Z,99219.13
2023-01-05T16:56:58.000Z,99219.13
2023-01-05T16:59:01.894Z,99221.84
2023-01-05T17:01:12.875Z,99219.63
2023-01-05T17:03:31.980Z,99224.56
2023-01-05T17:05:34.907Z,99221.25
2023-01-05T17:07:39.613Z,99228.06
2023-01-05T17:09:43.105Z,99223.66
2023-01-05T17:11:44.751Z,99233.22
2023-01-05T17:13:54.049Z,99230.75
2023-01-05T17:15:55.710Z,99226.59
2023-01-05T17:18:00.179Z,99241.38
2023-01-05T17:20:01.728Z,99232.59
2023-01-05T17:22:08.919Z,99233.09
2023-01-05T17:24:13.921Z,99229.78
2023-01-05T17:26:20.747Z,99236.34
2023-01-05T17:28:24.368Z,99238.53
2023-01-05T17:30:26.099Z,99227.56
2023-01-05T17:32:27.661Z,99237.13
2023-01-05T17:34:29.781Z,99240.94
2023-01-05T17:36:35.155Z,99238.47
2023-01-05T17:38:36.912Z,99253.25
2023-01-05T17:40:39.424Z,99239.81
2023-01-05T17:42:43.810Z,99243.63
2023-01-05T17:44:45.504Z,99254.59
2023-01-05T17:46:47.885Z,99245.81
2023-01-05T17:48:49.701Z,99248.81
2023-01-05T17:50:53.132Z,99241.66
2023-01-05T17:53:00.701Z,99239.19
2023-01-05T17:55:02.304Z,99243.00
2023-01-05T17:57:05.787Z,99234.78
2023-01-05T17:59:07.613Z,99242.72
2023-01-05T18:01:09.837Z,99244.34
2023-01-05T18:03:16.972Z,99242.38
2023-01-05T18:05:19.216Z,99244.28
2023-01-05T18:07:20.778Z,99249.19
2023-01-05T18:11:25.090Z,99244.50
2023-01-05T18:13:27.910Z,99241.41
2023-01-05T18:15:29.697Z,99252.66
2023-01-05T18:17:32.563Z,99249.56
2023-01-05T18:19:34.048Z,99247.09
2023-01-05T18:23:42.901Z,99240.72
2023-01-05T18:25:45.344Z,99256.59
2023-01-05T18:27:47.071Z,99252.44
2023-01-05T18:29:48.915Z,99242.84
2023-01-05T18:31:52.432Z,99251.28
2023-01-05T18:33:54.977Z,99254.28
2023-01-05T18:38:03.336Z,99257.22
2023-01-05T18:40:05.839Z,99270.59
2023-01-05T18:42:07.654Z,99262.63
2023-01-05T18:44:09.436Z,99263.97
2023-01-05T18:46:11.392Z,99262.56
2023-01-05T18:48:15.045Z,99271.50
2023-01-05T18:50:19.561Z,99266.56
2023-01-05T18:52:21.516Z,99271.44
2023-01-05T18:54:23.156Z,99267.28
2023-01-05T18:56:24.724Z,99263.13
2023-01-05T18:58:28.815Z,99268.03
2023-01-05T19:00:30.913Z,99271.28
2023-01-05T19:02:32.566Z,99281.66
2023-01-05T19:04:34.140Z,99273.94
2023-01-05T19:06:36.887Z,99280.75
2023-01-05T19:08:38.941Z,99271.38
2023-01-05T19:10:40.916Z,99270.81
2023-01-05T19:12:42.536Z,99270.47
2023-01-05T19:14:44.242Z,99280.25
2023-01-05T19:16:47.225Z,99270.34
2023-01-05T19:18:54.139Z,99270.84
2023-01-05T19:20:57.136Z,99281.22
2023-01-05T19:23:01.894Z,99271.59
2023-01-05T19:25:05.398Z,99272.94
2023-01-05T19:27:07.109Z,99270.47
2023-01-05T19:29:11.070Z,99273.41
2023-01-05T19:31:17.174Z,99270.94
2023-01-05T19:33:18.953Z,99275.84
2023-01-05T19:35:20.713Z,99274.44
2023-01-05T19:37:22.548Z,99272.75
2023-01-05T19:39:23.975Z,99269.69
2023-01-05T19:41:26.007Z,99266.38
2023-01-05T19:43:27.763Z,99266.84
2023-01-05T19:45:29.657Z,99267.94
2023-01-05T19:47:31.536Z,99270.91
2023-01-05T19:49:34.312Z,99276.06
2023-01-05T19:51:37.109Z,99281.53
2023-01-05T19:53:40.873Z,99279.03
2023-01-05T19:55:42.473Z,99277.63
2023-01-05T19:57:44.135Z,99282.28
2023-01-05T19:59:45.759Z,99282.50
2023-01-05T20:01:47.474Z,99281.94
2023-01-05T20:03:49.465Z,99279.94
2023-01-05T20:05:51.038Z,99277.44
2023-01-05T20:07:52.818Z,99272.50
2023-01-05T20:09:54.384Z,99275.22
2023-01-05T20:12:05.815Z,99274.63
2023-01-05T20:14:17.545Z,99274.88
2023-01-05T20:16:19.217Z,99277.25
2023-01-05T20:18:20.804Z,99287.13
2023-01-05T20:20:22.548Z,99278.09
2023-01-05T20:22:24.239Z,99281.91
2023-01-05T20:24:28.683Z,99281.09
2023-01-05T20:26:31.159Z,99278.34
2023-01-05T20:28:33.144Z,99284.66
2023-01-05T20:30:34.787Z,99289.28
2023-01-05T20:32:36.536Z,99278.34
2023-01-05T20:34:39.606Z,99284.66
2023-01-05T20:36:41.605Z,99281.91
2023-01-05T20:38:44.085Z,99284.38
2023-01-05T20:40:45.891Z,99282.50
2023-01-05T20:42:47.577Z,99290.44
2023-01-05T20:44:49.994Z,99291.28
2023-01-05T20:46:53.684Z,99284.75
2023-01-05T20:48:55.982Z,99294.59
2023-01-05T20:51:06.402Z,99299.22
2023-01-05T20:53:08.190Z,99291.84
2023-01-05T20:55:10.033Z,99299.00
2023-01-05T20:57:11.923Z,99301.47
2023-01-05T20:59:19.287Z,99303.97
2023-01-05T21:01:22.653Z,99301.25
2023-01-05T21:03:25.176Z,99296.34
2023-01-05T21:05:26.957Z,99299.09
2023-01-05T21:07:28.708Z,99289.78
2023-01-05T21:09:31.214Z,99306.81
2023-01-05T21:11:32.798Z,99301.09
2023-01-05T21:13:34.732Z,99303.81
2023-01-05T21:15:36.637Z,99302.75
2023-01-05T21:17:38.294Z,99309.63
2023-01-05T21:19:39.888Z,99305.22
2023-01-05T21:21:41.452Z,99303.34
2023-01-05T21:24:02.736Z,99309.63
2023-01-05T21:26:13.603Z,99307.97
2023-01-05T21:28:18.716Z,99316.16
2023-01-05T21:30:21.533Z,99310.44
2023-01-05T21:32:23.231Z,99307.72
2023-01-05T21:34:25.401Z,99312.94
2023-01-05T21:36:30.065Z,99302.00
2023-01-05T21:39:02.156Z,99308.06
2023-01-05T21:41:07.486Z,99297.13
2023-01-05T21:43:12.101Z,99297.13
2023-01-05T21:45:18.089Z,99304.25
2023-01-05T21:47:19.590Z,99299.59
2023-01-05T21:49:21.311Z,99301.00
2023-01-05T21:51:41.632Z,99299.38
2023-01-05T21:54:06.415Z,99291.16
2023-01-05T21:56:26.601Z,99295.53
2023-01-05T21:58:28.321Z,99294.47
2023-01-05T22:00:30.071Z,99285.19
2023-01-05T22:02:31.872Z,99284.38
2023-01-05T22:04:36.811Z,99286.84
2023-01-05T22:06:38.525Z,99274.84
2023-01-05T22:08:40.285Z,99276.72
2023-01-05T22:10:41.879Z,99275.66
2023-01-05T22:12:43.480Z,99273.75
2023-01-05T22:14:47.902Z,99278.16
2023-01-05T22:16:50.982Z,99289.66
2023-01-05T22:18:52.857Z,99277.88
2023-01-05T22:21:02.157Z,99273.25
2023-01-05T22:23:03.694Z,99283.34
2023-01-05T22:25:05.931Z,99279.81
2023-01-05T22:27:08.074Z,99282.28
2023-01-05T22:29:09.547Z,99282.03
2023-01-05T22:31:16.644Z,99286.69
2023-01-05T22:33:18.309Z,99283.69
2023-01-05T22:35:20.211Z,99279.06
2023-01-05T22:37:21.990Z,99268.97
2023-01-05T22:39:23.552Z,99276.91
2023-01-05T22:41:28.278Z,99275.84
2023-01-05T22:43:30.023Z,99270.38
2023-01-05T22:45:32.605Z,99268.44
2023-01-05T22:47:34.204Z,99276.41
2023-01-05T22:49:35.675Z,99269.03
2023-01-05T22:51:38.286Z,99271.78
2023-01-05T22:53:40.389Z,99267.72
2023-01-05T22:55:44.071Z,99269.63
2023-01-05T22:57:45.715Z,99267.94
2023-01-05T22:59:50.505Z,99265.81
2023-01-05T23:01:52.122Z,99270.19
2023-01-05T23:03:55.494Z,99270.78
2023-01-05T23:05:57.261Z,99266.97
2023-01-05T23:07:58.989Z,99259.59
2023-01-05T23:10:00.701Z,99265.28
2023-01-05T23:12:02.557Z,99252.22
2023-01-05T23:14:06.391Z,99246.75
2023-01-05T23:16:08.419Z,99245.66
2023-01-05T23:18:09.859Z,99248.38
2023-01-05T23:20:11.822Z,99249.22
2023-01-05T23:22:13.560Z,99250.06
2023-01-05T23:24:15.132Z,99249.22
2023-01-05T23:26:19.416Z,99251.69
2023-01-05T23:28:23.424Z,99241.84
2023-01-05T23:30:26.046Z,99244.59
2023-01-05T23:32:27.679Z,99250.06
2023-01-05T23:34:29.243Z,99242.69
2023-01-05T23:36:31.148Z,99243.47
2023-01-05T23:38:33.575Z,99236.09
2023-01-05T23:40:40.877Z,99240.75
2023-01-05T23:42:46.414Z,99236.09
2023-01-05T23:44:47.873Z,99235.88
2023-01-05T23:46:49.510Z,99227.66
2023-01-05T23:48:52.071Z,99233.13
2023-01-05T23:50:55.099Z,99231.47
2023-01-05T23:52:58.677Z,99230.41
2023-01-05T23:55:00.269Z,99224.94
2023-01-05T23:57:01.926Z,99220.25
2023-01-05T23:59:06.388Z,99218.34
